createdAt,value
2023-03-01T00:01:33.641Z,99.90
2023-03-01T00:04:00.814Z,99.90
2023-03-01T00:06:34.657Z,99.90
2023-03-01T00:09:04.165Z,99.90
2023-03-01T00:11:40.661Z,99.90
2023-03-01T00:14:07.776Z,99.90
2023-03-01T00:16:50.674Z,1.00
2023-03-01T00:19:26.622Z,1.00
2023-03-01T00:21:59.643Z,1.00
2023-03-01T00:24:26.557Z,1.00
2023-03-01T00:27:03.637Z,1.00
2023-03-01T00:29:30.539Z,1.00
2023-03-01T00:32:03.800Z,1.00
2023-03-01T00:34:30.928Z,1.00
2023-03-01T00:37:12.633Z,1.00
2023-03-01T00:39:42.361Z,1.00
2023-03-01T00:42:15.652Z,1.00
2023-03-01T00:44:49.703Z,1.00
2023-03-01T00:47:36.653Z,1.00
2023-03-01T00:50:10.680Z,1.00
2023-03-01T00:52:37.701Z,1.00
2023-03-01T00:55:12.695Z,99.90
2023-03-01T00:57:46.655Z,99.90
2023-03-01T01:00:20.701Z,99.90
2023-03-01T01:02:47.922Z,99.90
2023-03-01T01:05:21.653Z,99.90
2023-03-01T01:07:49.378Z,99.90
2023-03-01T01:10:25.690Z,99.90
2023-03-01T01:12:58.689Z,1.00
2023-03-01T01:15:26.470Z,1.00
2023-03-01T01:17:59.641Z,1.00
2023-03-01T01:20:26.567Z,1.00
2023-03-01T01:22:53.630Z,1.00
2023-03-01T01:25:27.672Z,1.00
2023-03-01T01:28:00.687Z,99.90
2023-03-01T01:30:33.670Z,99.90
2023-03-01T01:33:06.680Z,1.00
2023-03-01T01:35:39.673Z,1.00
2023-03-01T01:38:06.736Z,1.00
2023-03-01T01:40:39.679Z,17.00
2023-03-01T01:43:29.533Z,6.20
2023-03-01T01:46:12.751Z,82.90
2023-03-01T01:49:00.679Z,62.70
2023-03-01T01:51:39.599Z,12.40
2023-03-01T01:54:35.671Z,95.90
2023-03-01T01:57:16.727Z,99.90
2023-03-01T01:59:58.651Z,99.90
2023-03-01T02:02:33.784Z,99.90
2023-03-01T02:05:55.724Z,99.90
2023-03-01T02:08:37.732Z,99.90
2023-03-01T02:11:11.691Z,99.90
2023-03-01T02:13:39.108Z,99.90
2023-03-01T02:16:17.660Z,99.90
2023-03-01T02:18:52.677Z,99.90
2023-03-01T02:22:00.706Z,99.90
2023-03-01T02:25:04.736Z,99.90
2023-03-01T02:28:25.651Z,99.90
2023-03-01T02:31:19.699Z,99.90
2023-03-01T02:33:55.683Z,99.90
2023-03-01T02:36:37.694Z,99.90
2023-03-01T02:39:21.673Z,99.90
2023-03-01T02:42:00.681Z,99.90
2023-03-01T02:44:34.705Z,99.90
2023-03-01T02:47:10.663Z,99.90
2023-03-01T02:49:52.707Z,99.90
2023-03-01T02:52:52.666Z,99.90
2023-03-01T02:55:20.226Z,99.90
2023-03-01T02:57:58.724Z,99.90
2023-03-01T03:00:54.720Z,99.90
2023-03-01T03:03:29.721Z,99.90
2023-03-01T03:06:02.681Z,99.90
2023-03-01T03:08:29.599Z,99.90
2023-03-01T03:11:03.713Z,99.90
2023-03-01T03:13:30.684Z,99.90
2023-03-01T03:15:58.392Z,99.90
2023-03-01T03:18:35.661Z,1.00
2023-03-01T03:21:02.638Z,1.00
2023-03-01T03:23:36.695Z,1.00
2023-03-01T03:26:05.652Z,99.90
2023-03-01T03:28:41.644Z,99.90
2023-03-01T03:31:15.724Z,99.90
2023-03-01T03:33:49.731Z,99.90
2023-03-01T03:36:30.901Z,99.90
2023-03-01T03:39:04.679Z,99.90
2023-03-01T03:41:37.672Z,61.80
2023-03-01T03:44:11.669Z,1.00
2023-03-01T03:46:44.709Z,1.00
2023-03-01T03:49:18.289Z,1.00
2023-03-01T03:51:53.697Z,1.00
2023-03-01T03:54:20.617Z,99.90
2023-03-01T03:56:53.703Z,99.90
2023-03-01T03:59:28.675Z,99.90
2023-03-01T04:02:01.724Z,99.90
2023-03-01T04:04:28.590Z,99.90
2023-03-01T04:06:55.473Z,99.90
2023-03-01T04:09:28.705Z,66.20
2023-03-01T04:11:55.637Z,37.30
2023-03-01T04:14:29.755Z,30.00
2023-03-01T04:16:56.901Z,33.90
2023-03-01T04:19:30.668Z,1.00
2023-03-01T04:21:57.711Z,1.00
2023-03-01T04:24:31.764Z,1.00
2023-03-01T04:27:05.690Z,1.00
2023-03-01T04:29:32.744Z,1.00
2023-03-01T04:32:06.743Z,1.00
2023-03-01T04:34:33.767Z,1.00
2023-03-01T04:37:06.697Z,1.00
2023-03-01T04:39:40.710Z,1.40
2023-03-01T04:42:13.698Z,99.90
2023-03-01T04:44:47.664Z,99.90
2023-03-01T04:47:20.698Z,99.90
2023-03-01T04:49:53.741Z,99.90
2023-03-01T04:52:27.684Z,99.90
2023-03-01T04:54:54.621Z,99.90
2023-03-01T04:57:27.733Z,99.90
2023-03-01T04:59:54.701Z,99.90
2023-03-01T05:02:27.726Z,99.90
2023-03-01T05:05:04.671Z,99.90
2023-03-01T05:07:37.717Z,99.90
2023-03-01T05:10:13.625Z,99.90
2023-03-01T05:12:46.704Z,74.20
2023-03-01T05:15:20.693Z,57.00
2023-03-01T05:17:53.701Z,36.40
2023-03-01T05:20:30.726Z,43.80
2023-03-01T05:23:06.665Z,43.00
2023-03-01T05:25:41.673Z,5.60
2023-03-01T05:28:13.541Z,1.00
2023-03-01T05:30:48.714Z,1.00
2023-03-01T05:33:15.791Z,1.00
2023-03-01T05:35:51.827Z,1.00
2023-03-01T05:38:25.746Z,1.00
2023-03-01T05:40:59.811Z,1.00
2023-03-01T05:43:27.180Z,1.00
2023-03-01T05:46:00.771Z,1.00
2023-03-01T05:48:34.838Z,1.00
2023-03-01T05:51:08.699Z,1.00
2023-03-01T05:53:42.885Z,1.00
2023-03-01T05:56:10.001Z,1.00
2023-03-01T05:58:45.957Z,1.00
2023-03-01T06:01:20.678Z,1.00
2023-03-01T06:03:54.702Z,1.00
2023-03-01T06:06:21.660Z,1.00
2023-03-01T06:08:54.673Z,1.00
2023-03-01T06:11:29.720Z,99.90
2023-03-01T06:14:03.696Z,99.90
2023-03-01T06:16:30.882Z,99.90
2023-03-01T06:19:04.774Z,99.90
2023-03-01T06:21:37.686Z,99.90
2023-03-01T06:24:13.775Z,99.90
2023-03-01T06:26:41.068Z,99.90
2023-03-01T06:29:15.696Z,99.90
2023-03-01T06:31:42.606Z,99.90
2023-03-01T06:34:15.973Z,99.90
2023-03-01T06:36:42.889Z,99.90
2023-03-01T06:39:16.713Z,99.90
2023-03-01T06:41:49.772Z,58.10
2023-03-01T06:44:23.821Z,19.20
2023-03-01T06:46:50.824Z,1.00
2023-03-01T06:49:30.705Z,2.50
2023-03-01T06:51:58.405Z,1.00
2023-03-01T06:54:31.708Z,1.00
2023-03-01T06:56:58.756Z,22.00
2023-03-01T06:59:31.731Z,8.90
2023-03-01T07:02:04.735Z,3.80
2023-03-01T07:04:31.666Z,1.00
2023-03-01T07:07:05.701Z,1.00
2023-03-01T07:09:40.736Z,1.00
2023-03-01T07:12:07.953Z,1.00
2023-03-01T07:14:34.973Z,1.00
2023-03-01T07:17:08.742Z,1.00
2023-03-01T07:19:41.689Z,1.00
2023-03-01T07:22:17.681Z,1.00
2023-03-01T07:24:45.168Z,1.00
2023-03-01T07:27:18.671Z,1.00
2023-03-01T07:29:45.534Z,1.00
2023-03-01T07:32:19.777Z,1.00
2023-03-01T07:34:46.749Z,1.00
2023-03-01T07:37:19.706Z,1.00
2023-03-01T07:39:52.857Z,1.00
2023-03-01T07:42:26.703Z,99.90
2023-03-01T07:44:53.677Z,99.90
2023-03-01T07:47:26.746Z,99.90
2023-03-01T07:50:02.187Z,99.90
2023-03-01T07:52:35.720Z,99.90
2023-03-01T07:55:08.734Z,99.90
2023-03-01T07:57:35.692Z,99.90
2023-03-01T08:00:08.695Z,99.90
2023-03-01T08:02:41.778Z,99.90
2023-03-01T08:05:11.166Z,99.90
2023-03-01T08:07:44.722Z,99.90
2023-03-01T08:10:12.242Z,99.90
2023-03-01T08:12:45.736Z,99.90
2023-03-01T08:15:19.696Z,99.90
2023-03-01T08:17:53.748Z,99.90
2023-03-01T08:20:27.720Z,99.90
2023-03-01T08:23:01.861Z,99.90
2023-03-01T08:25:35.742Z,99.90
2023-03-01T08:28:10.761Z,99.90
2023-03-01T08:30:44.734Z,99.90
2023-03-01T08:33:11.875Z,99.90
2023-03-01T08:35:51.763Z,99.90
2023-03-01T08:38:25.687Z,99.90
2023-03-01T08:40:58.731Z,99.90
2023-03-01T08:43:26.467Z,77.70
2023-03-01T08:45:59.842Z,60.90
2023-03-01T08:48:35.747Z,38.90
2023-03-01T08:51:32.743Z,31.60
2023-03-01T08:53:59.638Z,39.40
2023-03-01T08:56:32.894Z,55.00
2023-03-01T09:01:40.734Z,1.00
2023-03-01T09:04:07.970Z,13.30
2023-03-01T09:06:42.714Z,1.00
2023-03-01T09:09:18.645Z,1.00
2023-03-01T09:11:53.742Z,1.00
2023-03-01T09:14:20.732Z,1.00
2023-03-01T09:16:54.836Z,1.00
2023-03-01T09:19:28.723Z,1.00
2023-03-01T09:21:56.913Z,1.00
2023-03-01T09:24:31.783Z,1.00
2023-03-01T09:26:58.732Z,1.00
2023-03-01T09:29:33.770Z,1.00
2023-03-01T09:32:01.653Z,1.00
2023-03-01T09:34:35.740Z,1.00
2023-03-01T09:37:03.237Z,1.00
2023-03-01T09:39:37.985Z,1.00
2023-03-01T09:42:11.755Z,1.00
2023-03-01T09:45:10.686Z,1.00
2023-03-01T09:47:44.855Z,1.00
2023-03-01T09:50:49.873Z,1.00
2023-03-01T09:53:39.723Z,1.00
2023-03-01T09:56:29.266Z,1.00
2023-03-01T09:59:14.932Z,1.00
2023-03-01T10:02:11.902Z,1.00
2023-03-01T10:05:26.775Z,1.00
2023-03-01T10:08:14.812Z,1.00
2023-03-01T10:10:48.423Z,1.00
2023-03-01T10:13:31.742Z,1.00
2023-03-01T10:16:12.960Z,1.00
2023-03-01T10:18:48.782Z,99.90
2023-03-01T10:21:27.750Z,1.00
2023-03-01T10:24:09.529Z,1.00
2023-03-01T10:27:07.755Z,1.00
2023-03-01T10:29:57.025Z,1.00
2023-03-01T10:32:37.160Z,1.00
2023-03-01T10:35:33.845Z,1.00
2023-03-01T10:38:18.103Z,1.00
2023-03-01T10:40:59.323Z,1.00
2023-03-01T10:43:58.884Z,1.00
2023-03-01T10:46:33.249Z,1.00
2023-03-01T10:49:32.885Z,1.00
2023-03-01T10:52:22.449Z,1.00
2023-03-01T10:55:20.947Z,1.00
2023-03-01T10:57:54.808Z,1.00
2023-03-01T11:00:31.450Z,1.00
2023-03-01T11:03:18.922Z,1.00
2023-03-01T11:06:20.798Z,1.00
2023-03-01T11:09:33.392Z,1.00
2023-03-01T11:12:02.850Z,1.00
2023-03-01T11:14:58.483Z,1.00
2023-03-01T11:17:53.775Z,1.00
2023-03-01T11:20:46.069Z,1.00
2023-03-01T11:23:25.085Z,1.00
2023-03-01T11:26:41.863Z,1.00
2023-03-01T11:29:47.741Z,1.00
2023-03-01T11:32:16.801Z,1.00
2023-03-01T11:34:59.788Z,1.00
2023-03-01T11:38:25.785Z,1.00
2023-03-01T11:41:12.798Z,1.00
2023-03-01T11:44:10.811Z,1.00
2023-03-01T11:47:08.925Z,1.00
2023-03-01T11:50:21.772Z,1.00
2023-03-01T11:53:21.754Z,1.00
2023-03-01T11:56:15.741Z,1.00
2023-03-01T11:59:15.822Z,1.00
2023-03-01T12:02:07.876Z,1.00
2023-03-01T12:05:22.888Z,1.00
2023-03-01T12:08:42.228Z,1.00
2023-03-01T12:12:01.807Z,1.00
2023-03-01T12:15:28.771Z,1.00
2023-03-01T12:18:29.736Z,1.00
2023-03-01T12:21:21.691Z,1.00
2023-03-01T12:24:14.787Z,1.00
2023-03-01T12:27:10.089Z,1.00
2023-03-01T12:30:28.771Z,1.00
2023-03-01T12:33:56.778Z,1.00
2023-03-01T12:36:54.872Z,1.00
2023-03-01T12:39:37.753Z,1.00
2023-03-01T12:43:03.086Z,1.00
2023-03-01T12:46:01.006Z,1.00
2023-03-01T12:49:20.766Z,1.00
2023-03-01T12:52:15.327Z,1.00
2023-03-01T12:54:49.781Z,1.00
2023-03-01T12:57:44.781Z,1.00
